Time;durP1;ratioP1;P1;durP2;ratioP2;P2;SDS_P1;SDS_P2;PMS_P1;PMS_P2;Temp;Humidity;BMP_temperature;BMP_pressure;BME280_temperature;BME280_humidity;BME280_pressure;Samples;Min_cycle;Max_cycle;Signal;HPM_P1;HPM_P2
2020/12/04 00:02:01;;;;;;;57.50;25.87;;;;;;;1.17;77.53;97579.02;125408;1096;65160;-84
2020/12/04 00:04:39;;;;;;;47.73;24.13;;;;;;;1.20;77.91;97565.68;125537;1095;65139;-83
2020/12/04 00:07:16;;;;;;;68.50;25.97;;;;;;;1.33;77.75;97563.18;125530;1096;65229;-82
2020/12/04 00:09:47;;;;;;;48.93;24.00;;;;;;;1.43;78.02;97569.61;125591;1095;65243;-83
2020/12/04 00:12:37;;;;;;;54.53;25.63;;;;;;;1.50;77.73;97562.20;125467;1095;65367;-84
2020/12/04 00:15:14;;;;;;;56.10;26.15;;;;;;;1.49;77.72;97568.41;125358;1096;65185;-84
2020/12/04 00:17:43;;;;;;;50.50;24.30;;;;;;;1.47;77.37;97555.34;125818;1096;65130;-83
2020/12/04 00:20:14;;;;;;;59.70;26.23;;;;;;;1.50;78.09;97557.78;125423;1095;65130;-84
2020/12/04 00:22:55;;;;;;;61.70;26.87;;;;;;;1.52;77.77;97555.89;125376;1096;65157;-82
2020/12/04 00:25:42;;;;;;;50.12;22.27;;;;;;;1.51;77.51;97550.73;125417;1095;65166;-83
2020/12/04 00:28:13;;;;;;;46.87;24.77;;;;;;;1.53;77.56;97548.88;125632;1095;65153;-85
2020/12/04 00:30:55;;;;;;;59.93;28.93;;;;;;;1.56;77.60;97564.47;125237;1095;65146;-84
2020/12/04 00:33:24;;;;;;;70.00;29.60;;;;;;;1.54;77.59;97558.45;125625;1096;65312;-84
2020/12/04 00:35:57;;;;;;;65.97;29.07;;;;;;;1.52;77.40;97562.94;125759;1095;65170;-84
2020/12/04 00:38:26;;;;;;;64.80;29.43;;;;;;;1.44;77.24;97557.30;125490;1096;65153;-82
2020/12/04 00:40:59;;;;;;;65.90;27.43;;;;;;;1.43;77.61;97553.83;125560;1095;65243;-83
2020/12/04 00:43:29;;;;;;;65.27;28.17;;;;;;;1.46;77.49;97548.37;125576;1096;65197;-83
2020/12/04 00:45:59;;;;;;;51.90;24.73;;;;;;;1.50;77.53;97551.67;125546;1095;65728;-85
2020/12/04 00:48:33;;;;;;;44.57;21.83;;;;;;;1.46;77.14;97547.52;126419;1095;65485;-82
2020/12/04 00:51:11;;;;;;;48.80;24.07;;;;;;;1.51;77.94;97542.84;125629;1095;65275;-83
2020/12/04 00:53:42;;;;;;;50.67;24.83;;;;;;;1.60;77.78;97555.47;125683;1095;65105;-85
2020/12/04 00:56:13;;;;;;;56.70;26.53;;;;;;;1.65;77.55;97542.01;125804;1095;65248;-84
2020/12/04 00:58:53;;;;;;;44.30;21.93;;;;;;;1.58;77.26;97533.64;125338;1096;65278;-85
2020/12/04 01:01:27;;;;;;;55.97;25.27;;;;;;;1.48;76.96;97540.41;125577;1095;65146;-82
2020/12/04 01:03:59;;;;;;;57.03;25.57;;;;;;;1.47;77.67;97542.20;125307;1096;65147;-83
2020/12/04 01:06:29;;;;;;;47.70;23.30;;;;;;;1.51;77.74;97529.69;125461;1095;65268;-84
2020/12/04 01:09:00;;;;;;;51.37;22.20;;;;;;;1.48;77.79;97529.89;125571;1090;65184;-81
2020/12/04 01:11:32;;;;;;;44.70;23.03;;;;;;;1.45;77.26;97525.63;125234;1095;65370;-83
2020/12/04 01:14:11;;;;;;;57.10;23.87;;;;;;;1.42;77.54;97530.25;125634;1095;65157;-82
2020/12/04 01:16:51;;;;;;;44.93;20.23;;;;;;;1.37;77.32;97527.04;125783;1096;65159;-84
2020/12/04 01:19:40;;;;;;;42.73;20.67;;;;;;;1.32;77.74;97530.78;125512;1097;65156;-83
2020/12/04 01:22:18;;;;;;;47.43;22.43;;;;;;;1.29;77.34;97533.61;126523;1095;65204;-82
2020/12/04 01:24:58;;;;;;;46.90;22.65;;;;;;;1.28;77.45;97523.19;125748;1095;65313;-85
2020/12/04 01:27:31;;;;;;;48.10;21.95;;;;;;;1.32;77.29;97540.45;125610;1095;65146;-85
2020/12/04 01:30:12;;;;;;;50.30;21.70;;;;;;;1.34;77.86;97520.19;125563;1095;65193;-84
2020/12/04 01:32:42;;;;;;;43.17;19.97;;;;;;;1.34;77.61;97518.41;125792;1095;65163;-83
2020/12/04 01:35:09;;;;;;;42.37;19.37;;;;;;;1.29;77.61;97509.94;125998;1095;65188;-82
2020/12/04 01:37:35;;;;;;;47.33;22.10;;;;;;;1.26;77.26;97515.36;125573;1096;65287;-84
2020/12/04 01:40:03;;;;;;;43.13;20.30;;;;;;;1.25;77.51;97515.45;125373;1096;65185;-83
2020/12/04 01:42:30;;;;;;;42.00;20.83;;;;;;;1.24;77.54;97504.09;125897;1095;65144;-85
2020/12/04 01:44:57;;;;;;;50.45;19.90;;;;;;;1.24;77.81;97505.88;125457;1096;65230;-82
2020/12/04 01:47:25;;;;;;;50.57;20.53;;;;;;;1.26;77.92;97498.73;125465;1096;65143;-85
2020/12/04 01:49:51;;;;;;;42.80;19.27;;;;;;;1.29;77.71;97498.57;125512;1095;65134;-83
2020/12/04 01:52:18;;;;;;;53.07;22.37;;;;;;;1.29;77.54;97486.27;125375;1096;65162;-86
2020/12/04 01:54:47;;;;;;;70.25;25.80;;;;;;;1.26;77.55;97485.59;125468;1096;65154;-82
2020/12/04 01:57:20;;;;;;;75.30;27.95;;;;;;;1.27;77.86;97479.39;126130;1095;65140;-84
2020/12/04 01:59:47;;;;;;;91.57;30.27;;;;;;;1.28;77.97;97474.06;125612;1095;65211;-83
2020/12/04 02:02:18;;;;;;;67.83;27.37;;;;;;;1.27;77.80;97466.23;125501;1095;65256;-83
2020/12/04 02:04:46;;;;;;;57.13;25.20;;;;;;;1.26;77.10;97451.41;125530;1095;65226;-87
2020/12/04 02:07:29;;;;;;;54.60;22.95;;;;;;;1.23;77.47;97441.92;125542;1095;65130;-83
2020/12/04 02:10:02;;;;;;;53.50;24.47;;;;;;;1.21;77.45;97446.45;125260;1095;65080;-84
2020/12/04 02:12:30;;;;;;;49.47;21.73;;;;;;;1.22;77.71;97440.23;125540;1095;65102;-88
2020/12/04 02:14:56;;;;;;;57.17;25.10;;;;;;;1.22;77.91;97448.13;125558;1095;65220;-82
2020/12/04 02:17:33;;;;;;;39.60;19.85;;;;;;;1.21;77.77;97445.56;125551;1095;65348;-86
2020/12/04 02:20:00;;;;;;;41.23;20.07;;;;;;;1.21;77.55;97441.19;125282;1096;65128;-85
2020/12/04 02:22:39;;;;;;;41.30;18.87;;;;;;;1.23;77.71;97430.56;125499;1095;65201;-84
2020/12/04 02:25:08;;;;;;;46.65;20.95;;;;;;;1.26;78.05;97419.84;125311;1095;65207;-83
2020/12/04 02:27:44;;;;;;;38.50;18.37;;;;;;;1.25;77.66;97416.38;125490;1095;65153;-84
2020/12/04 02:30:16;;;;;;;48.93;22.83;;;;;;;1.28;77.78;97418.84;125557;1095;65152;-85
2020/12/04 02:32:43;;;;;;;44.00;21.00;;;;;;;1.34;77.74;97417.62;125530;1095;65150;-85
2020/12/04 02:35:09;;;;;;;42.00;19.87;;;;;;;1.34;77.78;97405.31;125533;1095;65245;-84
2020/12/04 02:37:35;;;;;;;33.60;18.30;;;;;;;1.41;78.02;97408.41;125543;1095;65137;-85
2020/12/04 02:40:02;;;;;;;41.03;19.30;;;;;;;1.44;77.61;97399.47;125537;1095;65237;-84
2020/12/04 02:42:29;;;;;;;43.10;20.25;;;;;;;1.43;77.50;97403.05;125553;1095;65147;-84
2020/12/04 02:44:55;;;;;;;43.47;21.03;;;;;;;1.46;77.70;97397.58;125558;1095;65185;-84
2020/12/04 02:47:25;;;;;;;44.93;22.20;;;;;;;1.43;77.45;97387.27;125528;1095;65531;-84
2020/12/04 02:49:51;;;;;;;37.20;18.40;;;;;;;1.43;77.88;97385.48;125336;1095;65153;-85
2020/12/04 02:52:22;;;;;;;35.10;17.07;;;;;;;1.44;77.93;97384.53;125518;1095;65261;-84
2020/12/04 02:54:49;;;;;;;31.90;16.83;;;;;;;1.48;78.30;97372.05;125576;1096;65220;-86
2020/12/04 02:57:16;;;;;;;31.17;15.33;;;;;;;1.54;77.75;97363.77;125544;1095;65204;-84
2020/12/04 02:59:44;;;;;;;29.57;15.63;;;;;;;1.61;78.07;97359.81;125582;1096;65067;-88
2020/12/04 03:02:10;;;;;;;27.33;14.97;;;;;;;1.70;78.06;97361.84;125532;1095;65130;-87
2020/12/04 03:04:37;;;;;;;29.77;16.33;;;;;;;1.78;78.33;97346.44;125520;1095;65284;-83
2020/12/04 03:07:05;;;;;;;28.60;15.50;;;;;;;1.83;78.13;97344.33;125527;1095;65118;-84
2020/12/04 03:09:31;;;;;;;33.37;17.73;;;;;;;1.85;78.34;97337.20;125515;1095;65158;-84
2020/12/04 03:11:59;;;;;;;27.97;16.07;;;;;;;1.88;78.16;97336.99;125565;1095;65191;-84
2020/12/04 03:14:26;;;;;;;28.65;16.10;;;;;;;1.92;78.05;97328.91;125572;1095;65240;-82
2020/12/04 03:16:52;;;;;;;31.97;16.20;;;;;;;1.94;77.92;97324.38;125586;1095;65275;-85
2020/12/04 03:19:19;;;;;;;31.13;17.03;;;;;;;1.98;77.95;97325.88;125532;1095;65166;-85
2020/12/04 03:21:45;;;;;;;26.30;15.70;;;;;;;2.03;78.42;97323.77;125540;1095;65144;-85
2020/12/04 03:24:12;;;;;;;26.15;15.30;;;;;;;2.09;78.17;97332.11;125456;1095;65245;-83
2020/12/04 03:26:39;;;;;;;28.40;16.53;;;;;;;2.15;78.30;97325.61;125495;1095;65227;-81
2020/12/04 03:29:06;;;;;;;31.80;17.63;;;;;;;2.22;78.32;97326.05;125410;1095;65140;-83
2020/12/04 03:31:32;;;;;;;33.37;19.60;;;;;;;2.26;78.43;97323.11;125515;1095;65271;-84
2020/12/04 03:33:58;;;;;;;34.27;17.97;;;;;;;2.31;78.42;97320.19;125550;1095;65257;-81
2020/12/04 03:36:25;;;;;;;33.75;17.95;;;;;;;2.35;78.66;97319.86;125580;1095;65143;-83
2020/12/04 03:38:51;;;;;;;35.67;17.77;;;;;;;2.39;78.63;97307.34;125526;1095;65191;-81
2020/12/04 03:41:18;;;;;;;35.85;17.05;;;;;;;2.42;78.33;97305.36;125543;1095;65208;-83
2020/12/04 03:43:44;;;;;;;29.03;14.90;;;;;;;2.47;78.76;97305.02;125550;1095;65294;-84
2020/12/04 03:46:10;;;;;;;29.40;15.23;;;;;;;2.52;78.29;97310.83;125494;1095;65130;-83
2020/12/04 03:48:38;;;;;;;30.00;15.77;;;;;;;2.60;78.66;97292.70;125517;1095;65204;-85
2020/12/04 03:51:05;;;;;;;40.20;17.25;;;;;;;2.68;78.09;97286.94;125574;1095;65153;-88
2020/12/04 03:53:32;;;;;;;32.03;16.50;;;;;;;2.74;78.57;97283.88;125517;1095;65203;-85
2020/12/04 03:55:58;;;;;;;38.67;19.67;;;;;;;2.78;78.60;97279.22;125524;1095;65223;-86
2020/12/04 03:58:25;;;;;;;34.23;17.67;;;;;;;2.82;78.51;97278.08;125567;1095;65265;-85
2020/12/04 04:00:51;;;;;;;30.10;17.50;;;;;;;2.83;78.08;97280.59;125517;1095;65150;-88
2020/12/04 04:03:18;;;;;;;31.53;17.27;;;;;;;2.84;78.27;97282.28;125516;1095;65143;-83
2020/12/04 04:05:44;;;;;;;30.73;16.50;;;;;;;2.86;78.43;97277.77;125491;1095;65181;-87
2020/12/04 04:08:11;;;;;;;28.77;16.83;;;;;;;2.91;78.33;97278.27;125550;1094;65147;-88
2020/12/04 04:10:37;;;;;;;31.20;15.58;;;;;;;2.95;78.33;97277.11;125556;1095;65159;-83
2020/12/04 04:13:03;;;;;;;31.80;16.40;;;;;;;3.01;78.47;97277.64;125515;1095;65147;-88
2020/12/04 04:15:30;;;;;;;30.07;15.47;;;;;;;3.03;78.25;97266.02;125578;1095;65169;-84
2020/12/04 04:17:59;;;;;;;29.35;16.95;;;;;;;3.07;78.38;97261.39;125497;1095;65287;-84
2020/12/04 04:20:26;;;;;;;32.20;17.20;;;;;;;3.07;78.48;97256.95;125546;1095;65182;-85
2020/12/04 04:22:53;;;;;;;31.23;17.73;;;;;;;3.08;78.23;97253.36;125497;1095;65265;-86
2020/12/04 04:25:19;;;;;;;25.97;15.37;;;;;;;3.09;78.42;97246.29;125481;1095;65223;-85
2020/12/04 04:27:46;;;;;;;32.67;16.47;;;;;;;3.07;77.92;97242.93;125549;1095;65351;-90
2020/12/04 04:30:13;;;;;;;29.07;16.13;;;;;;;3.07;78.62;97253.48;125492;1095;65237;-87
2020/12/04 04:32:40;;;;;;;28.13;15.50;;;;;;;3.07;78.07;97246.41;125527;1096;65134;-84
2020/12/04 04:35:07;;;;;;;30.00;16.10;;;;;;;3.10;78.20;97261.16;125272;1095;65083;-85
2020/12/04 04:37:33;;;;;;;36.43;18.07;;;;;;;3.12;78.55;97257.48;125571;1095;65162;-86
2020/12/04 04:40:00;;;;;;;35.70;18.10;;;;;;;3.13;78.08;97250.41;125557;1095;65150;-83
2020/12/04 04:42:27;;;;;;;34.90;17.57;;;;;;;3.13;78.86;97258.32;125534;1095;65147;-84
2020/12/04 04:44:55;;;;;;;30.87;16.87;;;;;;;3.11;78.18;97268.11;125523;1095;65178;-89
2020/12/04 04:47:28;;;;;;;28.63;16.57;;;;;;;3.09;78.18;97262.11;125502;1095;65230;-84
2020/12/04 04:49:54;;;;;;;35.90;19.20;;;;;;;3.06;78.20;97270.26;125297;1096;65009;-85
2020/12/04 04:52:21;;;;;;;32.70;17.47;;;;;;;3.04;78.23;97272.14;125531;1095;65127;-86
2020/12/04 04:54:49;;;;;;;31.67;18.23;;;;;;;3.04;78.38;97262.43;125507;1095;65170;-83
2020/12/04 04:57:21;;;;;;;32.93;17.87;;;;;;;3.03;77.72;97257.27;125589;1095;65185;-86
2020/12/04 04:59:49;;;;;;;33.70;17.37;;;;;;;3.03;78.31;97260.75;125584;1095;65265;-85
2020/12/04 05:02:16;;;;;;;31.40;17.00;;;;;;;3.04;78.27;97266.86;125541;1095;65184;-85
2020/12/04 05:04:50;;;;;;;32.83;17.70;;;;;;;3.04;78.23;97259.80;125560;1095;65201;-85
2020/12/04 05:07:29;;;;;;;38.23;20.48;;;;;;;3.04;78.22;97258.95;125926;1095;65248;-83
2020/12/04 05:10:12;;;;;;;39.37;20.83;;;;;;;3.02;78.22;97252.95;125328;1096;65098;-85
2020/12/04 05:12:44;;;;;;;35.90;19.57;;;;;;;3.01;77.99;97269.73;125471;1095;65192;-83
2020/12/04 05:15:23;;;;;;;34.97;19.37;;;;;;;2.98;78.40;97261.06;125320;1096;65249;-87
2020/12/04 05:18:05;;;;;;;41.47;19.57;;;;;;;2.96;78.30;97262.13;125526;1095;65137;-85
2020/12/04 05:20:40;;;;;;;36.25;19.85;;;;;;;2.95;78.41;97256.02;125312;1096;65207;-87
2020/12/04 05:23:07;;;;;;;33.33;18.60;;;;;;;2.93;78.65;97250.02;125296;1096;65137;-84
2020/12/04 05:25:44;;;;;;;39.50;18.35;;;;;;;2.94;78.59;97256.97;125525;1095;65169;-88
2020/12/04 05:28:15;;;;;;;41.17;19.40;;;;;;;2.94;78.24;97248.22;125299;1096;65149;-84
2020/12/04 05:30:45;;;;;;;43.93;21.87;;;;;;;2.95;78.26;97252.54;125339;1095;65223;-82
2020/12/04 05:33:12;;;;;;;62.60;27.77;;;;;;;2.93;78.23;97252.66;125525;1096;65352;-83
2020/12/04 05:35:39;;;;;;;64.85;28.00;;;;;;;2.94;78.35;97251.70;125334;1096;65214;-84
2020/12/04 05:38:16;;;;;;;54.90;25.90;;;;;;;2.92;78.10;97250.10;125557;1095;65224;-85
2020/12/04 05:40:46;;;;;;;55.25;25.60;;;;;;;2.90;78.14;97257.28;125164;1096;65118;-85
2020/12/04 05:43:14;;;;;;;43.60;21.67;;;;;;;2.88;78.34;97259.20;125607;1095;65089;-85
2020/12/04 05:45:41;;;;;;;44.43;21.40;;;;;;;2.84;78.18;97266.46;125496;1095;65309;-84
2020/12/04 05:48:16;;;;;;;38.70;20.75;;;;;;;2.84;78.24;97262.98;125505;1096;65201;-84
2020/12/04 05:50:43;;;;;;;44.75;21.75;;;;;;;2.84;78.45;97265.63;125355;1096;65130;-83
2020/12/04 05:53:10;;;;;;;42.77;22.10;;;;;;;2.85;78.48;97262.03;125281;1096;65181;-85
2020/12/04 05:55:38;;;;;;;43.93;22.67;;;;;;;2.88;78.23;97269.74;125312;1095;65253;-83
2020/12/04 05:58:09;;;;;;;45.03;24.33;;;;;;;2.89;78.28;97268.78;125511;1095;65249;-88
2020/12/04 06:00:36;;;;;;;49.90;23.90;;;;;;;2.91;78.33;97267.72;125302;1095;65099;-89
2020/12/04 06:03:05;;;;;;;59.40;26.60;;;;;;;2.90;78.71;97273.11;125514;1095;65156;-83
2020/12/04 06:05:32;;;;;;;49.47;25.33;;;;;;;2.88;78.85;97275.02;125350;1096;65233;-85
2020/12/04 06:08:03;;;;;;;51.75;25.55;;;;;;;2.86;78.32;97274.26;125298;1096;65265;-85
2020/12/04 06:10:32;;;;;;;49.13;25.03;;;;;;;2.85;78.36;97270.78;125261;1096;65172;-86
2020/12/04 06:13:00;;;;;;;50.67;23.23;;;;;;;2.85;78.52;97272.58;125670;1095;65130;-83
2020/12/04 06:15:28;;;;;;;50.90;23.87;;;;;;;2.87;78.44;97266.27;125508;1095;65200;-85
2020/12/04 06:18:07;;;;;;;47.97;23.50;;;;;;;2.90;78.67;97267.83;125463;1095;65194;-84
2020/12/04 06:20:46;;;;;;;45.50;23.00;;;;;;;2.92;78.35;97273.83;125306;1096;65598;-83
2020/12/04 06:23:16;;;;;;;54.95;26.40;;;;;;;2.93;78.38;97265.84;125273;1096;65201;-88
2020/12/04 06:25:52;;;;;;;59.35;26.80;;;;;;;2.98;78.67;97268.97;125323;1095;65242;-87
2020/12/04 06:28:21;;;;;;;58.87;26.50;;;;;;;2.99;78.43;97264.57;125552;1095;65126;-84
2020/12/04 06:31:07;;;;;;;55.55;26.30;;;;;;;2.98;78.48;97273.41;125259;1096;65242;-84
2020/12/04 06:33:37;;;;;;;62.97;27.03;;;;;;;2.94;78.52;97270.16;125391;1096;65163;-83
2020/12/04 06:36:05;;;;;;;53.73;26.77;;;;;;;2.91;78.83;97272.99;125543;1096;65326;-87
2020/12/04 06:38:41;;;;;;;58.43;27.70;;;;;;;2.89;78.60;97269.62;125591;1095;65226;-85
2020/12/04 06:41:22;;;;;;;53.00;26.05;;;;;;;2.87;78.35;97275.97;125544;1096;65208;-84
2020/12/04 06:43:51;;;;;;;59.40;27.90;;;;;;;2.84;78.42;97269.09;125598;1095;65249;-83
2020/12/04 06:46:41;;;;;;;52.70;25.95;;;;;;;2.83;78.51;97271.84;125548;1095;65179;-84
2020/12/04 06:49:08;;;;;;;53.00;24.40;;;;;;;2.81;78.45;97271.96;125533;1095;65341;-83
2020/12/04 06:51:36;;;;;;;58.43;26.30;;;;;;;2.82;78.31;97272.80;125545;1095;65525;-88
2020/12/04 06:54:03;;;;;;;65.40;28.97;;;;;;;2.84;78.43;97278.80;125502;1095;65249;-87
2020/12/04 06:56:29;;;;;;;60.97;26.33;;;;;;;2.89;78.87;97284.61;125510;1095;65185;-86
2020/12/04 06:58:56;;;;;;;65.10;28.27;;;;;;;2.93;78.72;97278.18;125598;1095;65146;-83
2020/12/04 07:01:22;;;;;;;77.40;30.30;;;;;;;2.93;78.86;97281.66;125551;1096;65153;-84
2020/12/04 07:03:53;;;;;;;63.70;30.45;;;;;;;2.92;78.87;97271.19;125594;1095;65688;-82
2020/12/04 07:06:21;;;;;;;66.83;30.43;;;;;;;2.90;78.25;97270.47;125307;1096;65567;-83
2020/12/04 07:09:14;;;;;;;64.57;29.77;;;;;;;2.85;78.25;97275.21;125548;1096;65191;-84
2020/12/04 07:11:41;;;;;;;65.87;30.30;;;;;;;2.78;78.34;97266.88;125504;1095;65153;-88
2020/12/04 07:14:08;;;;;;;62.03;30.23;;;;;;;2.71;78.33;97269.10;125743;1095;65326;-85
2020/12/04 07:16:39;;;;;;;59.03;28.93;;;;;;;2.64;78.56;97253.82;125299;1096;65265;-87
2020/12/04 07:19:06;;;;;;;62.50;27.50;;;;;;;2.57;78.25;97253.41;125801;1095;65301;-83
2020/12/04 07:21:33;;;;;;;49.00;23.73;;;;;;;2.53;78.84;97257.19;125592;1095;65246;-85
2020/12/04 07:23:59;;;;;;;47.80;22.73;;;;;;;2.52;78.80;97249.39;125546;1095;65089;-85
2020/12/04 07:26:28;;;;;;;52.10;22.95;;;;;;;2.50;78.69;97249.50;125275;1096;65220;-90
2020/12/04 07:28:55;;;;;;;44.27;23.03;;;;;;;2.50;78.89;97246.03;125776;1095;65155;-85
2020/12/04 07:31:21;;;;;;;48.23;23.60;;;;;;;2.49;78.60;97246.98;125279;1096;65250;-85
2020/12/04 07:33:54;;;;;;;47.27;25.33;;;;;;;2.47;78.53;97244.42;125653;1095;65197;-84
2020/12/04 07:36:20;;;;;;;49.60;24.70;;;;;;;2.44;78.45;97232.31;125484;1095;65185;-86
2020/12/04 07:38:56;;;;;;;47.67;25.00;;;;;;;2.43;78.54;97240.34;125692;1096;65290;-85
2020/12/04 07:41:25;;;;;;;64.07;29.13;;;;;;;2.44;79.10;97231.48;125703;1095;65226;-84
2020/12/04 07:44:00;;;;;;;63.90;31.93;;;;;;;2.42;78.51;97228.11;125766;1095;65178;-85
2020/12/04 07:46:29;;;;;;;62.70;30.27;;;;;;;2.40;78.59;97215.02;125535;1095;65098;-85
2020/12/04 07:49:07;;;;;;;60.33;28.07;;;;;;;2.47;79.06;97217.23;125341;1097;65198;-87
2020/12/04 07:51:36;;;;;;;51.87;24.20;;;;;;;2.57;78.85;97215.67;125453;1096;65208;-83
2020/12/04 07:54:26;;;;;;;56.17;25.53;;;;;;;2.68;78.60;97215.77;125655;1096;65536;-85
2020/12/04 07:56:57;;;;;;;48.57;23.90;;;;;;;2.79;78.90;97205.30;125694;1095;65139;-85
2020/12/04 07:59:29;;;;;;;60.57;28.00;;;;;;;2.91;78.89;97208.88;125977;1095;65080;-83
2020/12/04 08:01:56;;;;;;;55.30;24.47;;;;;;;3.03;78.61;97208.00;125895;1096;65115;-89
2020/12/04 08:04:22;;;;;;;52.00;26.87;;;;;;;3.13;78.92;97197.66;125376;1090;65241;-86
2020/12/04 08:06:49;;;;;;;47.00;25.17;;;;;;;3.22;78.73;97213.66;125558;1095;65246;-85
2020/12/04 08:09:19;;;;;;;40.87;23.10;;;;;;;3.30;78.57;97205.18;125622;1095;65217;-87
2020/12/04 08:11:56;;;;;;;33.97;19.53;;;;;;;3.40;78.36;97208.01;125780;1095;65246;-86
2020/12/04 08:14:27;;;;;;;32.63;18.47;;;;;;;3.52;78.51;97218.52;125635;1095;65217;-87
2020/12/04 08:16:59;;;;;;;23.90;15.15;;;;;;;3.64;78.26;97208.86;125654;1095;65210;-83
2020/12/04 08:19:31;;;;;;;28.67;15.80;;;;;;;3.76;78.43;97207.96;125353;1096;65153;-88
2020/12/04 08:22:00;;;;;;;27.50;15.80;;;;;;;3.87;78.17;97215.06;125706;1095;65089;-85
2020/12/04 08:24:30;;;;;;;26.63;16.83;;;;;;;3.97;78.53;97217.88;125820;1095;65169;-86
2020/12/04 08:27:09;;;;;;;29.83;18.07;;;;;;;4.08;78.59;97225.02;125365;1096;65276;-87
2020/12/04 08:29:42;;;;;;;25.40;16.07;;;;;;;4.17;78.80;97229.59;125556;1095;65322;-86
2020/12/04 08:32:21;;;;;;;20.30;13.27;;;;;;;4.27;78.13;97235.88;125323;1095;65213;-86
2020/12/04 08:34:49;;;;;;;23.40;13.27;;;;;;;4.38;78.28;97229.75;125660;1095;65239;-86
2020/12/04 08:37:18;;;;;;;27.47;15.97;;;;;;;4.47;78.41;97240.48;125361;1096;65191;-88
2020/12/04 08:39:45;;;;;;;27.13;16.03;;;;;;;4.56;77.75;97237.13;125544;1095;65117;-91
2020/12/04 08:42:20;;;;;;;28.77;16.50;;;;;;;4.65;78.30;97240.05;125489;1095;65150;-86
2020/12/04 08:45:08;;;;;;;30.10;15.73;;;;;;;4.75;78.24;97243.64;125598;1095;65146;-86
2020/12/04 08:47:41;;;;;;;31.60;16.45;;;;;;;4.87;78.00;97242.69;125630;1095;65179;-87
2020/12/04 08:50:14;;;;;;;28.97;15.30;;;;;;;4.98;77.84;97249.80;125422;1096;65208;-87
2020/12/04 08:52:47;;;;;;;31.13;14.63;;;;;;;5.09;77.54;97249.78;125509;1096;65153;-85
2020/12/04 08:55:23;;;;;;;23.37;13.30;;;;;;;5.24;78.15;97248.59;125553;1096;65283;-84
2020/12/04 08:57:52;;;;;;;27.83;15.27;;;;;;;5.36;77.88;97244.97;125418;1096;65150;-84
2020/12/04 09:00:33;;;;;;;29.70;14.40;;;;;;;5.47;77.92;97251.19;125616;1095;65265;-84
2020/12/04 09:03:01;;;;;;;26.93;13.30;;;;;;;5.53;77.85;97245.41;126041;1095;65195;-82
2020/12/04 09:05:27;;;;;;;28.17;15.37;;;;;;;5.60;77.82;97252.76;125633;1096;65224;-84
2020/12/04 09:07:55;;;;;;;20.27;12.33;;;;;;;5.63;77.01;97267.55;125773;1096;65741;-84
2020/12/04 09:10:22;;;;;;;17.37;10.70;;;;;;;5.64;76.98;97253.33;125719;1095;65175;-83
2020/12/04 09:12:49;;;;;;;18.73;11.67;;;;;;;5.69;77.19;97259.95;125700;1095;65152;-84
2020/12/04 09:15:18;;;;;;;21.30;11.63;;;;;;;5.78;77.27;97268.11;125514;1096;65163;-81
2020/12/04 09:17:45;;;;;;;19.13;10.97;;;;;;;5.87;77.43;97270.02;125519;1096;65137;-82
2020/12/04 09:20:15;;;;;;;15.77;10.20;;;;;;;5.99;77.54;97265.57;125427;1095;65246;-83
2020/12/04 09:22:42;;;;;;;17.27;10.10;;;;;;;6.12;77.26;97258.29;125765;1096;65168;-82
2020/12/04 09:25:14;;;;;;;17.57;10.03;;;;;;;6.22;77.03;97257.37;125700;1090;65226;-82
2020/12/04 09:27:42;;;;;;;19.30;11.65;;;;;;;6.30;77.01;97263.84;125558;1096;65723;-87
2020/12/04 09:30:11;;;;;;;24.03;12.77;;;;;;;6.37;77.17;97267.70;125628;1095;65172;-82
2020/12/04 09:32:38;;;;;;;23.30;13.47;;;;;;;6.36;76.97;97265.99;125594;1096;65389;-83
2020/12/04 09:35:06;;;;;;;30.63;12.40;;;;;;;6.24;76.74;97262.58;125432;1096;65290;-84
2020/12/04 09:37:38;;;;;;;23.00;12.03;;;;;;;6.10;77.10;97255.73;125444;1095;65269;-83
2020/12/04 09:40:16;;;;;;;15.20;9.20;;;;;;;5.96;76.36;97261.34;125629;1096;65666;-84
2020/12/04 09:42:43;;;;;;;16.13;9.67;;;;;;;5.90;76.47;97269.76;125600;1095;65136;-83
2020/12/04 09:45:13;;;;;;;19.93;11.10;;;;;;;5.92;76.96;97262.58;125886;1095;65144;-83
2020/12/04 09:47:43;;;;;;;17.53;11.20;;;;;;;5.93;77.09;97264.26;125961;1095;65540;-82
2020/12/04 09:50:15;;;;;;;20.70;13.25;;;;;;;5.94;76.83;97248.23;125427;1096;65249;-82
2020/12/04 09:52:43;;;;;;;23.03;13.30;;;;;;;6.01;76.74;97245.08;125586;1095;65328;-86
2020/12/04 09:55:10;;;;;;;22.27;14.17;;;;;;;6.10;77.18;97246.95;125605;1095;65221;-84
2020/12/04 09:57:37;;;;;;;21.57;13.70;;;;;;;6.20;77.48;97250.53;125573;1095;65127;-88
2020/12/04 10:00:07;;;;;;;21.10;12.83;;;;;;;6.36;77.26;97244.78;125301;1095;65149;-86
2020/12/04 10:02:34;;;;;;;15.85;10.55;;;;;;;6.57;77.06;97237.69;125497;1095;65153;-87
2020/12/04 10:05:02;;;;;;;17.70;11.15;;;;;;;6.75;77.01;97241.44;125345;1096;65275;-82
2020/12/04 10:07:29;;;;;;;18.73;12.73;;;;;;;6.91;76.60;97235.64;125202;1096;65226;-85
2020/12/04 10:09:56;;;;;;;20.17;12.57;;;;;;;7.26;76.87;97232.59;125659;1095;65195;-84
2020/12/04 10:12:23;;;;;;;20.17;11.97;;;;;;;7.89;77.14;97224.34;126009;1090;65125;-83
2020/12/04 10:14:50;;;;;;;13.23;9.93;;;;;;;8.45;76.42;97220.15;125822;1095;65191;-83
2020/12/04 10:17:16;;;;;;;13.20;9.37;;;;;;;8.90;75.82;97215.00;126023;1095;65191;-82
2020/12/04 10:19:43;;;;;;;15.00;9.70;;;;;;;9.18;75.37;97197.27;126079;1090;65149;-83
2020/12/04 10:22:11;;;;;;;13.53;8.70;;;;;;;9.42;75.37;97194.06;125815;1090;65123;-83
2020/12/04 10:24:39;;;;;;;12.53;8.57;;;;;;;9.63;75.46;97185.80;125756;1095;65147;-81
2020/12/04 10:27:05;;;;;;;13.53;8.23;;;;;;;9.66;74.71;97186.31;125711;1095;65143;-81
2020/12/04 10:29:32;;;;;;;12.33;8.53;;;;;;;9.65;74.57;97181.98;125750;1095;65141;-83
2020/12/04 10:31:58;;;;;;;10.00;7.87;;;;;;;9.65;74.63;97194.47;125878;1090;65185;-84
2020/12/04 10:34:26;;;;;;;12.20;8.43;;;;;;;9.65;74.91;97200.64;125780;1095;65233;-84
2020/12/04 10:36:53;;;;;;;11.27;6.90;;;;;;;9.65;74.07;97218.45;125793;1090;65173;-81
2020/12/04 10:39:21;;;;;;;20.60;11.30;;;;;;;9.65;73.91;97213.13;126158;1090;65153;-80
2020/12/04 10:41:47;;;;;;;18.03;8.73;;;;;;;9.67;74.77;97200.48;126011;1095;65315;-84
2020/12/04 10:44:14;;;;;;;14.97;8.63;;;;;;;9.72;74.57;97190.21;125613;1096;65188;-87
2020/12/04 10:46:41;;;;;;;13.50;8.50;;;;;;;9.70;74.16;97184.20;125706;1095;65256;-82
2020/12/04 10:49:08;;;;;;;11.23;7.57;;;;;;;9.70;74.28;97170.88;125538;1096;65144;-84
2020/12/04 10:51:36;;;;;;;12.05;8.05;;;;;;;9.68;73.94;97175.53;125892;1095;65134;-82
2020/12/04 10:54:05;;;;;;;11.00;7.53;;;;;;;9.72;74.67;97174.22;125843;1095;65219;-80
2020/12/04 10:56:32;;;;;;;12.00;7.07;;;;;;;9.80;73.82;97174.33;125516;1095;65219;-82
2020/12/04 10:58:59;;;;;;;10.03;7.67;;;;;;;9.81;74.47;97167.16;125655;1095;65178;-82
2020/12/04 11:01:40;;;;;;;9.27;7.20;;;;;;;9.87;74.49;97178.05;125372;1096;65188;-84
2020/12/04 11:06:54;;;;;;;9.40;6.62;;;;;;;10.17;74.52;97194.64;125713;1095;65305;-83
2020/12/04 11:09:21;;;;;;;11.00;7.30;;;;;;;10.18;74.22;97190.98;126046;1090;65564;-88
2020/12/04 11:11:48;;;;;;;10.03;7.43;;;;;;;10.27;74.52;97190.11;125298;1096;65291;-88
2020/12/04 11:14:15;;;;;;;12.97;7.90;;;;;;;10.40;74.64;97189.71;125417;1096;65239;-85
2020/12/04 11:16:42;;;;;;;14.57;8.93;;;;;;;10.58;74.21;97181.67;125313;1096;65154;-87
2020/12/04 11:19:10;;;;;;;12.87;8.77;;;;;;;10.70;74.22;97183.93;125502;1095;65259;-82
2020/12/04 11:21:36;;;;;;;11.80;8.97;;;;;;;10.69;74.33;97182.26;125497;1095;65152;-84
2020/12/04 11:24:03;;;;;;;15.00;10.57;;;;;;;10.72;73.72;97189.11;125864;1095;65364;-80
2020/12/04 11:26:29;;;;;;;13.60;8.50;;;;;;;10.74;73.43;97176.42;125526;1095;65194;-82
2020/12/04 11:28:56;;;;;;;10.37;7.83;;;;;;;10.69;72.43;97179.59;125476;1095;65143;-82
2020/12/04 11:31:22;;;;;;;17.07;9.13;;;;;;;10.55;73.03;97175.63;125212;1096;65205;-84
2020/12/04 11:33:49;;;;;;;16.53;8.33;;;;;;;10.59;73.04;97175.34;125326;1095;65147;-80